createdAt,value
2018-01-21T00:00:18.289Z,51.17
2018-01-21T00:02:46.787Z,58.43
2018-01-21T00:05:15.245Z,49.10
2018-01-21T00:07:43.598Z,49.93
2018-01-21T00:10:11.961Z,42.83
2018-01-21T00:12:40.710Z,45.50
2018-01-21T00:15:09.082Z,49.50
2018-01-21T00:17:37.572Z,44.07
2018-01-21T00:20:06.312Z,35.33
2018-01-21T00:22:41.540Z,42.90
2018-01-21T00:25:10.301Z,43.97
2018-01-21T00:27:38.664Z,42.77
2018-01-21T00:30:07.040Z,43.83
2018-01-21T00:32:35.413Z,46.37
2018-01-21T00:35:03.796Z,44.67
2018-01-21T00:37:32.155Z,39.73
2018-01-21T00:40:00.521Z,40.83
2018-01-21T00:42:28.930Z,40.40
2018-01-21T00:44:57.297Z,47.13
2018-01-21T00:47:25.769Z,45.57
2018-01-21T00:49:54.183Z,52.57
2018-01-21T00:52:22.528Z,42.80
2018-01-21T00:54:50.905Z,48.93
2018-01-21T00:57:19.252Z,48.97
2018-01-21T00:59:48.105Z,38.10
2018-01-21T01:02:16.460Z,51.57
2018-01-21T01:04:44.833Z,54.17
2018-01-21T01:07:13.192Z,39.97
2018-01-21T01:09:41.552Z,40.67
2018-01-21T01:12:10.291Z,43.90
2018-01-21T01:14:38.667Z,45.90
2018-01-21T01:17:07.029Z,51.00
2018-01-21T01:19:35.556Z,42.27
2018-01-21T01:22:03.915Z,51.53
2018-01-21T01:24:32.280Z,48.23
2018-01-21T01:27:00.648Z,47.77
2018-01-21T01:29:29.025Z,42.87
2018-01-21T01:31:57.386Z,45.20
2018-01-21T01:34:25.731Z,44.33
2018-01-21T01:36:54.100Z,42.20
2018-01-21T01:39:22.572Z,45.13
2018-01-21T01:41:50.985Z,41.90
2018-01-21T01:44:19.896Z,50.33
2018-01-21T01:46:48.265Z,38.47
2018-01-21T01:49:17.103Z,46.40
2018-01-21T01:51:45.470Z,44.27
2018-01-21T01:54:13.819Z,46.93
2018-01-21T01:56:42.597Z,42.83
2018-01-21T01:59:11.336Z,44.60
2018-01-21T02:01:39.707Z,35.10
2018-01-21T02:04:08.068Z,41.33
2018-01-21T02:06:36.423Z,42.50
2018-01-21T02:09:05.312Z,39.07
2018-01-21T02:11:33.665Z,42.23
2018-01-21T02:14:02.131Z,42.83
2018-01-21T02:16:30.611Z,35.60
2018-01-21T02:18:59.079Z,35.33
2018-01-21T02:21:27.526Z,36.13
2018-01-21T02:23:55.866Z,34.50
2018-01-21T02:26:24.446Z,31.30
2018-01-21T02:28:52.800Z,35.00
2018-01-21T02:31:21.152Z,33.83
2018-01-21T02:33:49.568Z,27.83
2018-01-21T02:36:17.979Z,36.47
2018-01-21T02:38:46.738Z,30.40
2018-01-21T02:41:15.096Z,33.70
2018-01-21T02:43:43.444Z,32.60
2018-01-21T02:46:11.842Z,31.83
2018-01-21T02:48:40.238Z,42.47
2018-01-21T02:51:08.597Z,29.90
2018-01-21T02:53:36.969Z,30.67
2018-01-21T02:56:05.367Z,35.40
2018-01-21T02:58:33.842Z,36.17
2018-01-21T03:01:02.191Z,33.77
2018-01-21T03:03:30.955Z,37.60
2018-01-21T03:05:59.418Z,26.73
2018-01-21T03:08:27.769Z,26.40
2018-01-21T03:10:56.183Z,35.00
2018-01-21T03:13:24.567Z,34.00
2018-01-21T03:15:53.033Z,33.60
2018-01-21T03:18:21.490Z,34.33
2018-01-21T03:20:49.868Z,34.47
2018-01-21T03:23:18.265Z,27.10
2018-01-21T03:25:46.678Z,29.47
2018-01-21T03:28:15.152Z,31.20
2018-01-21T03:30:43.549Z,31.37
2018-01-21T03:33:12.319Z,36.77
2018-01-21T03:35:41.203Z,33.77
2018-01-21T03:38:09.549Z,36.53
2018-01-21T03:40:37.919Z,31.27
2018-01-21T03:43:06.284Z,37.00
2018-01-21T03:45:34.652Z,33.53
2018-01-21T03:48:03.082Z,34.73
2018-01-21T03:50:31.569Z,34.90
2018-01-21T03:52:59.922Z,35.63
2018-01-21T03:55:28.283Z,36.03
2018-01-21T03:57:56.636Z,33.50
2018-01-21T04:00:25.415Z,34.33
2018-01-21T04:02:53.876Z,43.10
2018-01-21T04:05:22.243Z,34.90
2018-01-21T04:07:50.740Z,34.10
2018-01-21T04:10:19.098Z,37.80
2018-01-21T04:12:47.479Z,38.40
2018-01-21T04:15:15.860Z,41.53
2018-01-21T04:17:44.218Z,39.53
2018-01-21T04:20:12.613Z,41.07
2018-01-21T04:22:40.964Z,35.93
2018-01-21T04:25:09.376Z,40.10
2018-01-21T04:27:37.748Z,40.30
2018-01-21T04:30:06.145Z,39.03
2018-01-21T04:32:35.040Z,40.70
2018-01-21T04:35:03.507Z,44.57
2018-01-21T04:37:31.878Z,42.70
2018-01-21T04:40:00.253Z,39.43
2018-01-21T04:42:28.612Z,40.23
2018-01-21T04:44:56.976Z,38.97
2018-01-21T04:47:25.385Z,40.07
2018-01-21T04:49:53.789Z,39.37
2018-01-21T04:52:22.167Z,45.43
2018-01-21T04:54:50.564Z,42.20
2018-01-21T04:57:18.931Z,45.47
2018-01-21T04:59:47.287Z,44.30
2018-01-21T05:02:15.724Z,45.17
2018-01-21T05:04:44.172Z,46.90
2018-01-21T05:07:12.635Z,43.90
2018-01-21T05:09:41.016Z,61.90
2018-01-21T05:12:09.496Z,51.83
2018-01-21T05:14:37.847Z,45.63
2018-01-21T05:17:06.259Z,49.70
2018-01-21T05:19:34.632Z,54.13
2018-01-21T05:22:03.020Z,53.40
2018-01-21T05:24:31.399Z,50.20
2018-01-21T05:26:59.947Z,57.13
2018-01-21T05:29:28.301Z,60.80
2018-01-21T05:31:57.069Z,81.80
2018-01-21T05:34:25.437Z,52.73
2018-01-21T05:36:53.903Z,50.00
2018-01-21T05:39:22.262Z,52.30
2018-01-21T05:41:50.649Z,50.70
2018-01-21T05:44:19.007Z,63.77
2018-01-21T05:46:47.417Z,61.47
2018-01-21T05:49:15.778Z,59.33
2018-01-21T05:51:44.139Z,59.60
2018-01-21T05:54:12.501Z,67.20
2018-01-21T05:56:41.310Z,54.33
2018-01-21T05:59:10.437Z,44.50
2018-01-21T06:01:38.843Z,52.20
2018-01-21T06:04:07.192Z,53.53
2018-01-21T06:06:35.630Z,52.77
2018-01-21T06:09:03.980Z,46.60
2018-01-21T06:11:32.438Z,63.67
2018-01-21T06:14:00.824Z,53.40
2018-01-21T06:16:29.285Z,59.73
2018-01-21T06:18:57.638Z,77.23
2018-01-21T06:21:26.023Z,55.20
2018-01-21T06:23:54.383Z,66.20
2018-01-21T06:26:22.804Z,56.50
2018-01-21T06:28:51.158Z,52.60
2018-01-21T06:31:19.526Z,54.80
2018-01-21T06:33:47.884Z,60.60
2018-01-21T06:36:16.660Z,52.37
2018-01-21T06:38:45.017Z,56.33
2018-01-21T06:41:13.461Z,63.83
2018-01-21T06:43:41.812Z,70.10
2018-01-21T06:46:10.606Z,56.53
2018-01-21T06:48:39.363Z,55.60
2018-01-21T06:51:07.819Z,60.03
2018-01-21T06:53:36.198Z,65.53
2018-01-21T06:56:04.589Z,60.77
2018-01-21T06:58:32.947Z,67.90
2018-01-21T07:01:01.310Z,61.67
2018-01-21T07:03:29.668Z,72.33
2018-01-21T07:05:58.510Z,63.73
2018-01-21T07:08:26.892Z,57.93
2018-01-21T07:10:55.253Z,58.50
2018-01-21T07:13:23.618Z,56.47
2018-01-21T07:15:52.029Z,56.23
2018-01-21T07:18:20.411Z,63.07
2018-01-21T07:20:48.927Z,65.37
2018-01-21T07:23:17.694Z,49.77
2018-01-21T07:25:46.064Z,61.47
2018-01-21T07:28:14.711Z,69.77
2018-01-21T07:30:43.071Z,62.47
2018-01-21T07:33:11.433Z,66.93
2018-01-21T07:35:40.201Z,59.33
2018-01-21T07:38:08.553Z,61.63
2018-01-21T07:40:36.950Z,67.57
2018-01-21T07:43:05.332Z,55.17
2018-01-21T07:45:33.899Z,51.73
2018-01-21T07:48:02.324Z,54.20
2018-01-21T07:50:31.085Z,56.63
2018-01-21T07:52:59.435Z,49.20
2018-01-21T07:55:27.807Z,61.20
2018-01-21T07:57:56.305Z,52.60
2018-01-21T08:00:24.775Z,51.03
2018-01-21T08:02:53.181Z,44.70
2018-01-21T08:05:21.632Z,42.63
2018-01-21T08:07:50.020Z,50.07
2018-01-21T08:10:18.412Z,60.33
2018-01-21T08:12:46.778Z,50.23
2018-01-21T08:15:15.162Z,44.97
2018-01-21T08:17:43.533Z,36.23
2018-01-21T08:20:11.921Z,40.23
2018-01-21T08:22:40.267Z,48.10
2018-01-21T08:25:08.615Z,48.70
2018-01-21T08:27:37.048Z,46.50
2018-01-21T08:30:05.436Z,44.77
2018-01-21T08:32:33.813Z,45.23
2018-01-21T08:35:07.791Z,52.30
2018-01-21T08:37:41.540Z,44.90
2018-01-21T08:40:15.402Z,47.00
2018-01-21T08:42:43.831Z,44.73
2018-01-21T08:45:12.184Z,50.13
2018-01-21T08:47:40.568Z,46.47
2018-01-21T08:50:08.927Z,51.60
2018-01-21T08:52:37.330Z,42.87
2018-01-21T08:55:05.806Z,53.90
2018-01-21T08:57:34.152Z,46.27
2018-01-21T09:00:02.503Z,47.53
2018-01-21T09:02:31.343Z,45.30
2018-01-21T09:04:59.731Z,52.60
2018-01-21T09:07:28.091Z,46.37
2018-01-21T09:09:56.486Z,51.33
2018-01-21T09:12:24.855Z,46.47
2018-01-21T09:14:53.247Z,47.13
2018-01-21T09:17:21.603Z,49.10
2018-01-21T09:19:49.971Z,49.00
2018-01-21T09:22:18.418Z,50.20
2018-01-21T09:24:46.764Z,39.97
2018-01-21T09:27:15.128Z,40.03
2018-01-21T09:29:43.471Z,45.50
2018-01-21T09:32:12.283Z,44.17
2018-01-21T09:34:40.808Z,46.97
2018-01-21T09:37:09.171Z,47.93
2018-01-21T09:39:37.525Z,46.10
2018-01-21T09:42:05.993Z,52.80
2018-01-21T09:44:34.420Z,44.97
2018-01-21T09:47:02.858Z,45.43
2018-01-21T09:49:31.215Z,50.77
2018-01-21T09:51:59.963Z,47.47
2018-01-21T09:54:28.324Z,43.73
2018-01-21T09:56:56.699Z,49.30
2018-01-21T09:59:25.071Z,44.03
2018-01-21T10:01:53.435Z,53.37
2018-01-21T10:04:21.780Z,51.23
2018-01-21T10:06:50.622Z,48.20
2018-01-21T10:09:19.109Z,46.60
2018-01-21T10:11:47.516Z,53.90
2018-01-21T10:14:15.867Z,50.93
2018-01-21T10:16:44.249Z,48.53
2018-01-21T10:19:12.597Z,51.53
2018-01-21T10:21:41.004Z,49.37
2018-01-21T10:24:09.360Z,49.03
2018-01-21T10:26:37.867Z,54.23
2018-01-21T10:29:06.224Z,48.30
2018-01-21T10:31:34.583Z,56.47
2018-01-21T10:34:03.464Z,50.60
2018-01-21T10:36:32.309Z,50.87
2018-01-21T10:39:00.647Z,45.70
2018-01-21T10:41:29.003Z,48.03
2018-01-21T10:43:57.745Z,52.37
2018-01-21T10:46:26.119Z,44.90
2018-01-21T10:48:54.476Z,53.00
2018-01-21T10:51:22.832Z,53.13
2018-01-21T10:53:51.673Z,56.53
2018-01-21T10:56:20.052Z,52.50
2018-01-21T10:58:48.395Z,46.87
2018-01-21T11:01:16.922Z,61.90
2018-01-21T11:03:45.288Z,48.60
2018-01-21T11:06:13.640Z,51.77
2018-01-21T11:08:42.060Z,54.33
2018-01-21T11:11:10.421Z,54.53
2018-01-21T11:13:38.770Z,64.93
2018-01-21T11:16:07.132Z,56.57
2018-01-21T11:18:35.894Z,52.03
2018-01-21T11:21:04.251Z,47.93
2018-01-21T11:23:32.604Z,41.60
2018-01-21T11:26:00.980Z,46.40
2018-01-21T11:28:29.336Z,47.37
2018-01-21T11:30:58.113Z,40.50
2018-01-21T11:33:26.857Z,45.80
2018-01-21T11:35:55.251Z,55.80
2018-01-21T11:38:23.619Z,55.63
2018-01-21T11:40:52.084Z,118.60
2018-01-21T11:43:20.502Z,52.23
2018-01-21T11:45:49.104Z,90.60
2018-01-21T11:48:17.955Z,143.57
2018-01-21T11:50:46.331Z,56.33
2018-01-21T11:53:14.690Z,54.53
2018-01-21T11:55:43.046Z,41.83
2018-01-21T11:58:11.395Z,53.00
2018-01-21T12:00:39.758Z,54.10
2018-01-21T12:03:08.124Z,57.50
2018-01-21T12:05:36.484Z,72.60
2018-01-21T12:08:04.826Z,75.30
2018-01-21T12:10:33.593Z,58.13
2018-01-21T12:13:02.039Z,54.90
2018-01-21T12:15:30.425Z,58.83
2018-01-21T12:17:58.786Z,55.07
2018-01-21T12:20:27.156Z,63.73
2018-01-21T12:22:55.559Z,63.40
2018-01-21T12:25:23.927Z,66.20
2018-01-21T12:27:52.336Z,48.80
2018-01-21T12:30:20.707Z,56.17
2018-01-21T12:32:49.076Z,53.73
2018-01-21T12:35:17.520Z,58.70
2018-01-21T12:37:45.892Z,58.23
2018-01-21T12:40:14.661Z,52.47
2018-01-21T12:42:43.003Z,52.50
2018-01-21T12:45:11.360Z,60.40
2018-01-21T12:47:39.756Z,51.20
2018-01-21T12:50:08.113Z,54.07
2018-01-21T12:52:36.454Z,69.77
2018-01-21T12:55:05.226Z,53.23
2018-01-21T12:57:33.578Z,53.27
2018-01-21T13:00:01.925Z,66.63
2018-01-21T13:02:30.285Z,48.87
2018-01-21T13:04:59.121Z,48.53
2018-01-21T13:07:27.517Z,46.17
2018-01-21T13:09:55.870Z,48.73
2018-01-21T13:12:24.257Z,55.53
2018-01-21T13:14:52.600Z,49.13
2018-01-21T13:17:21.021Z,46.33
2018-01-21T13:19:49.371Z,40.70
2018-01-21T13:22:17.736Z,47.30
2018-01-21T13:24:46.087Z,64.20
2018-01-21T13:27:14.451Z,61.93
2018-01-21T13:29:42.808Z,61.03
2018-01-21T13:32:11.160Z,52.03
2018-01-21T13:37:14.307Z,50.80
2018-01-21T13:39:42.667Z,51.80
2018-01-21T13:42:11.034Z,54.00
2018-01-21T13:44:39.380Z,47.40
2018-01-21T13:47:08.522Z,45.17
2018-01-21T13:49:38.408Z,57.60
2018-01-21T13:52:08.564Z,50.23
2018-01-21T13:54:37.025Z,51.27
2018-01-21T13:57:07.194Z,67.37
2018-01-21T13:59:36.188Z,60.93
2018-01-21T14:02:04.958Z,51.23
2018-01-21T14:04:35.131Z,49.23
2018-01-21T14:07:05.504Z,51.03
2018-01-21T14:09:34.167Z,44.63
2018-01-21T14:12:04.833Z,48.77
2018-01-21T14:14:33.770Z,41.37
2018-01-21T14:17:02.484Z,41.73
2018-01-21T14:19:31.581Z,38.67
2018-01-21T14:22:01.671Z,49.20
2018-01-21T14:24:30.666Z,42.70
2018-01-21T14:26:59.160Z,43.37
2018-01-21T14:29:28.753Z,44.93
2018-01-21T14:31:57.119Z,39.77
2018-01-21T14:34:26.058Z,45.03
2018-01-21T14:36:54.873Z,44.43
2018-01-21T14:39:23.233Z,44.00
2018-01-21T14:41:54.136Z,43.67
2018-01-21T14:44:22.566Z,35.03
2018-01-21T14:46:51.301Z,39.90
2018-01-21T14:49:21.710Z,43.47
2018-01-21T14:51:50.470Z,45.60
2018-01-21T14:54:18.825Z,48.97
2018-01-21T14:56:47.238Z,54.20
2018-01-21T14:59:16.325Z,49.87
2018-01-21T15:01:46.684Z,40.30
2018-01-21T15:04:15.353Z,44.93
2018-01-21T15:06:45.498Z,51.57
2018-01-21T15:09:14.987Z,43.80
2018-01-21T15:11:43.570Z,42.70
2018-01-21T15:14:13.347Z,41.10
2018-01-21T15:16:43.465Z,47.60
2018-01-21T15:19:12.411Z,50.80
2018-01-21T15:21:41.118Z,48.67
2018-01-21T15:24:11.396Z,55.77
2018-01-21T15:26:40.511Z,51.83
2018-01-21T15:29:09.928Z,48.10
2018-01-21T15:31:38.745Z,46.90
2018-01-21T15:34:07.498Z,48.97
2018-01-21T15:36:36.794Z,59.10
2018-01-21T15:39:05.492Z,54.97
2018-01-21T15:41:33.904Z,53.63
2018-01-21T15:44:02.853Z,48.20
2018-01-21T15:46:33.037Z,46.70
2018-01-21T15:49:02.707Z,58.30
2018-01-21T15:51:32.582Z,57.60
2018-01-21T15:54:01.719Z,62.50
2018-01-21T15:56:31.448Z,46.17
2018-01-21T15:59:00.133Z,43.90
2018-01-21T16:01:29.015Z,59.07
2018-01-21T16:03:57.432Z,53.73
2018-01-21T16:06:26.276Z,51.97
2018-01-21T16:08:54.683Z,50.63
2018-01-21T16:11:23.032Z,44.30
2018-01-21T16:13:51.380Z,47.43
2018-01-21T16:16:19.728Z,47.37
2018-01-21T16:18:48.073Z,50.97
2018-01-21T16:21:16.429Z,51.87
2018-01-21T16:23:44.776Z,66.27
2018-01-21T16:26:13.613Z,50.23
2018-01-21T16:28:41.964Z,42.20
2018-01-21T16:31:10.344Z,54.20
2018-01-21T16:33:38.699Z,59.17
2018-01-21T16:36:07.299Z,53.37
2018-01-21T16:41:43.101Z,57.47
2018-01-21T16:44:11.451Z,70.43
2018-01-21T16:46:39.861Z,93.77
2018-01-21T16:49:08.229Z,44.20
2018-01-21T16:51:36.584Z,45.90
2018-01-21T16:54:04.931Z,41.37
2018-01-21T16:56:33.374Z,54.70
2018-01-21T16:59:01.720Z,72.47
2018-01-21T17:01:30.088Z,50.30
2018-01-21T17:03:58.847Z,50.47
2018-01-21T17:06:27.201Z,47.30
2018-01-21T17:08:55.552Z,39.43
2018-01-21T17:11:23.904Z,41.17
2018-01-21T17:13:52.926Z,48.47
2018-01-21T17:16:21.298Z,43.53
2018-01-21T17:18:49.706Z,45.13
2018-01-21T17:21:18.068Z,38.77
2018-01-21T17:23:46.420Z,40.77
2018-01-21T17:26:15.171Z,40.90
2018-01-21T17:28:43.525Z,41.27
2018-01-21T17:31:11.914Z,45.63
2018-01-21T17:33:40.467Z,41.90
2018-01-21T17:36:10.211Z,42.53
2018-01-21T17:38:38.898Z,45.93
2018-01-21T17:41:08.448Z,41.57
2018-01-21T17:43:37.059Z,58.43
2018-01-21T17:46:05.433Z,52.80
2018-01-21T17:48:33.860Z,54.93
2018-01-21T17:51:02.215Z,54.60
2018-01-21T17:53:30.773Z,64.27
2018-01-21T17:55:59.199Z,55.97
2018-01-21T17:58:27.664Z,60.90
2018-01-21T18:00:56.025Z,68.70
2018-01-21T18:03:24.385Z,54.40
2018-01-21T18:05:52.817Z,61.63
2018-01-21T18:08:21.174Z,63.10
2018-01-21T18:10:49.530Z,63.73
2018-01-21T18:13:17.895Z,61.63
2018-01-21T18:15:46.253Z,61.97
2018-01-21T18:18:15.016Z,57.87
2018-01-21T18:20:43.411Z,64.83
2018-01-21T18:23:11.989Z,64.77
2018-01-21T18:25:40.340Z,57.90
2018-01-21T18:28:08.681Z,54.10
2018-01-21T18:30:37.100Z,63.87
2018-01-21T18:33:05.447Z,66.60
2018-01-21T18:35:33.807Z,64.03
2018-01-21T18:38:02.568Z,65.53
2018-01-21T18:40:31.028Z,59.33
2018-01-21T18:42:59.390Z,62.73
2018-01-21T18:45:27.771Z,55.60
2018-01-21T18:47:56.115Z,63.90
2018-01-21T18:50:24.476Z,52.20
2018-01-21T18:52:53.464Z,61.73
2018-01-21T18:55:21.806Z,53.63
2018-01-21T18:57:50.223Z,55.73
2018-01-21T19:00:18.994Z,53.47
2018-01-21T19:02:47.356Z,49.57
2018-01-21T19:05:15.779Z,54.67
2018-01-21T19:07:44.518Z,56.83
2018-01-21T19:10:12.974Z,65.37
2018-01-21T19:12:41.317Z,46.07
2018-01-21T19:15:10.072Z,45.57
2018-01-21T19:17:38.461Z,40.47
2018-01-21T19:20:06.819Z,45.67
2018-01-21T19:22:35.210Z,43.07
2018-01-21T19:25:03.645Z,46.07
2018-01-21T19:27:31.996Z,51.83
2018-01-21T19:30:00.852Z,53.87
2018-01-21T19:32:29.212Z,47.07
2018-01-21T19:34:57.560Z,49.73
2018-01-21T19:37:26.400Z,53.10
2018-01-21T19:39:54.759Z,63.03
2018-01-21T19:42:28.539Z,59.83
2018-01-21T19:44:56.890Z,51.97
2018-01-21T19:47:25.721Z,50.23
2018-01-21T19:49:54.100Z,50.47
2018-01-21T19:52:22.481Z,46.57
2018-01-21T19:54:50.839Z,47.40
2018-01-21T19:57:19.331Z,41.90
2018-01-21T19:59:47.747Z,47.77
2018-01-21T20:02:16.127Z,51.43
2018-01-21T20:04:44.553Z,39.53
2018-01-21T20:07:12.875Z,50.40
2018-01-21T20:09:41.259Z,44.10
2018-01-21T20:12:09.629Z,40.33
2018-01-21T20:14:37.988Z,38.70
2018-01-21T20:17:06.366Z,34.53
2018-01-21T20:19:34.715Z,39.43
2018-01-21T20:22:03.464Z,45.90
2018-01-21T20:24:31.824Z,40.97
2018-01-21T20:27:00.291Z,38.90
2018-01-21T20:29:28.849Z,45.40
2018-01-21T20:31:57.625Z,41.00
2018-01-21T20:34:26.064Z,37.47
2018-01-21T20:36:54.460Z,35.23
2018-01-21T20:39:22.809Z,45.03
2018-01-21T20:41:51.172Z,41.97
2018-01-21T20:44:19.647Z,36.07
2018-01-21T20:46:48.107Z,35.23
2018-01-21T20:49:16.956Z,34.00
2018-01-21T20:51:50.774Z,31.87
2018-01-21T20:54:24.616Z,35.90
2018-01-21T20:56:53.373Z,35.77
2018-01-21T20:59:21.788Z,35.97
2018-01-21T21:01:50.569Z,36.03
2018-01-21T21:04:19.347Z,37.37
2018-01-21T21:06:47.712Z,41.63
2018-01-21T21:09:16.068Z,36.70
2018-01-21T21:11:44.549Z,38.53
2018-01-21T21:14:12.900Z,39.40
2018-01-21T21:16:41.319Z,41.57
2018-01-21T21:19:09.700Z,36.87
2018-01-21T21:21:38.167Z,36.83
2018-01-21T21:24:06.520Z,33.93
2018-01-21T21:26:34.916Z,39.70
2018-01-21T21:29:03.445Z,43.37
2018-01-21T21:31:31.809Z,38.93
2018-01-21T21:34:00.157Z,31.87
2018-01-21T21:36:28.552Z,33.33
2018-01-21T21:38:56.907Z,33.40
2018-01-21T21:41:25.263Z,32.87
2018-01-21T21:43:53.755Z,34.80
2018-01-21T21:46:22.115Z,37.80
2018-01-21T21:48:50.863Z,34.70
2018-01-21T21:51:19.259Z,42.87
2018-01-21T21:53:47.600Z,37.10
2018-01-21T21:56:15.969Z,41.13
2018-01-21T21:58:44.320Z,36.53
2018-01-21T22:01:13.153Z,40.13
2018-01-21T22:03:41.509Z,48.27
2018-01-21T22:06:09.985Z,44.67
2018-01-21T22:08:38.660Z,46.37
2018-01-21T22:11:09.512Z,54.77
2018-01-21T22:13:40.552Z,43.93
2018-01-21T22:16:09.387Z,36.43
2018-01-21T22:18:37.786Z,38.77
2018-01-21T22:21:06.266Z,41.00
2018-01-21T22:23:35.011Z,43.10
2018-01-21T22:26:03.395Z,39.87
2018-01-21T22:28:31.811Z,37.93
2018-01-21T22:31:00.564Z,40.97
2018-01-21T22:33:28.911Z,36.70
2018-01-21T22:35:57.291Z,38.77
2018-01-21T22:38:25.705Z,46.00
2018-01-21T22:40:54.064Z,36.93
2018-01-21T22:43:22.427Z,42.43
2018-01-21T22:45:50.840Z,30.30
2018-01-21T22:48:19.209Z,33.70
2018-01-21T22:50:47.567Z,29.53
2018-01-21T22:53:15.975Z,34.47
2018-01-21T22:55:44.348Z,38.40
2018-01-21T22:58:12.710Z,40.60
2018-01-21T23:00:41.108Z,40.40
2018-01-21T23:03:09.500Z,33.10
2018-01-21T23:05:37.871Z,38.10
2018-01-21T23:08:06.233Z,38.63
2018-01-21T23:10:34.600Z,35.90
2018-01-21T23:13:02.958Z,36.80
2018-01-21T23:15:31.322Z,44.30
2018-01-21T23:18:00.064Z,44.83
2018-01-21T23:23:43.215Z,39.30
2018-01-21T23:26:11.585Z,38.27
2018-01-21T23:28:39.963Z,38.97
2018-01-21T23:31:08.336Z,32.60
2018-01-21T23:33:36.796Z,39.23
2018-01-21T23:36:05.186Z,38.07
2018-01-21T23:38:33.553Z,37.17
2018-01-21T23:41:01.920Z,40.83
2018-01-21T23:43:30.340Z,41.80
2018-01-21T23:45:58.832Z,41.93
2018-01-21T23:48:28.373Z,38.30
2018-01-21T23:50:58.834Z,40.37
2018-01-21T23:53:27.302Z,41.07
2018-01-21T23:55:56.531Z,37.97
2018-01-21T23:58:24.912Z,40.07
